• Join FlightAware (Why Join?)
  • Login
  • US Flag 
09:48AM EDT


 

Airport Tracker/Info


-or-


 

Live Flight TrackerFlight Track Log ✈ SKW5631 ✈ 04-May-2014 ✈ KSFO - KBUR

Flight Track Log - Related Links

Times and Time Zones

All times are in EDT time to prevent confusion due to time zone crossing. See the SKW5631 flight status page for this flight to view local times or setup timezone preferences in your user account.

Time Position Orientation Groundspeed Altitude Reporting Facility
EDT Latitude Longitude Course Direction KTS MPH feet Rate Location/Type
09:11PM 37.6594 -122.3683 136° Southeast 186 214 2,500  Level Oakland Center
09:12PM 37.6644 -122.4239 277° West 226 260 4,600 2,400 Climbing Oakland Center
09:13PM 37.5933 -122.4297 184° South 261 300 7,500 2,760 Climbing Oakland Center
09:14PM 37.5311 -122.3650 140° Southeast 288 331 10,300 2,400 Climbing Oakland Center
09:15PM 37.4622 -122.2911 140° Southeast 321 369 12,500 2,400 Climbing Oakland Center
09:16PM 37.3240 -122.1954 136° Southeast  Level FlightAware Approximate
09:16PM 37.3894 -122.2136 140° Southeast 340 391 15,200  Level Oakland Center
09:17PM 37.3150 -122.1342 140° Southeast 349 402 17,600 2,160 Climbing Oakland Center
09:18PM 37.2364 -122.0519 140° Southeast 365 420 19,700 2,040 Climbing Oakland Center
09:19PM 37.1561 -121.9669 140° Southeast 376 433 21,800 2,100 Climbing Oakland Center
09:20PM 37.0569 -121.8644 140° Southeast 385 443 24,100 1,980 Climbing Oakland Center
09:21PM 36.9700 -121.7772 141° Southeast 400 460 25,900 1,560 Climbing Oakland Center
09:22PM 36.8839 -121.6872 140° Southeast 405 466 27,300 1,260 Climbing Oakland Center
09:23PM 36.7981 -121.5992 141° Southeast 415 478 28,500 1,260 Climbing Oakland Center
09:24PM 36.7078 -121.5039 140° Southeast 424 488 29,900 1,320 Climbing Oakland Center
09:25PM 36.6144 -121.4094 141° Southeast 430 495 31,200 1,320 Climbing Oakland Center
09:26PM 36.5247 -121.3136 139° Southeast 430 495 32,700 840 Climbing Oakland Center
09:27PM 36.4128 -121.1981 140° Southeast 435 501 33,000 120 Climbing Oakland Center
09:28PM 36.3131 -121.0967 141° Southeast 460 529 33,000  Level Oakland Center
09:29PM 36.2119 -120.9922 140° Southeast 467 537 33,000  Level Oakland Center
09:30PM 36.1094 -120.8892 141° Southeast 474 545 33,000  Level Oakland Center
09:31PM 36.0086 -120.7850 140° Southeast 475 547 33,000  Level Oakland Center
09:32PM 35.9094 -120.6819 140° Southeast 469 540 33,000  Level Oakland Center
09:33PM 35.8097 -120.5811 141° Southeast 467 537 33,000  Level Oakland Center
09:34PM 35.7111 -120.4825 141° Southeast 460 529 33,000  Level Oakland Center
09:36PM 35.6003 -120.3714 141° Southeast 452 520 33,000 -420 Level Los Angeles Center
09:37PM 35.5019 -120.2731 141° Southeast 452 520 32,100 -1,320 Descending Los Angeles Center
09:38PM 35.3822 -120.1533 141° Southeast 462 532 30,300 -1,560 Descending Los Angeles Center
09:39PM 35.2897 -120.0597 140° Southeast 467 537 28,900 -1,440 Descending Los Angeles Center
09:40PM 35.1917 -119.9631 141° Southeast 455 524 27,400 -1,500 Descending Los Angeles Center
09:41PM 35.0969 -119.8692 141° Southeast 441 507 25,900 -1,620 Descending Los Angeles Center
09:42PM 34.9975 -119.7347 132° Southeast 442 509 24,100 -1,800 Descending Los Angeles Center
09:43PM 34.9128 -119.6208 132° Southeast 449 517 22,300 -1,800 Descending Los Angeles Center
09:44PM 34.8294 -119.5089 132° Southeast 449 517 20,400 -2,100 Descending Los Angeles Center
09:45PM 34.7483 -119.3994 132° Southeast 442 509 18,000 -2,280 Descending Los Angeles Center
09:46PM 34.6672 -119.2908 132° Southeast 438 504 15,700 -2,340 Descending Los Angeles Center
09:47PM 34.5869 -119.1672 128° Southeast 417 480 13,200 -2,220 Descending Los Angeles Center
09:48PM 34.5278 -119.0519 122° Southeast 406 467 11,100 -1,260 Descending Los Angeles Center
09:49PM 34.4589 -118.9725 136° Southeast 333 383 10,600 -1,080 Descending Los Angeles Center
09:50PM 34.3867 -118.9189 149° Southeast 305 351 8,900 -1,680 Descending Los Angeles Center
09:51PM 34.3450 -118.8306 120° Southeast 299 344 7,200 -1,560 Descending Los Angeles Center
09:52PM 34.3017 -118.7322 118° Southeast 277 319 5,700 -1,260 Descending Los Angeles Center
09:53PM 34.2664 -118.6492 117° Southeast 277 319 4,700 -1,020 Descending Los Angeles Center
09:54PM 34.2356 -118.5747 117° Southeast 265 305 3,700 -780 Descending Los Angeles Center
09:55PM 34.2106 -118.5153 117° Southeast 228 262 3,100 -660 Descending Los Angeles Center
09:56PM 34.2000 -118.4581 103° East 199 229 2,400 -840 Descending Los Angeles Center
09:57PM 34.1992 -118.4117 91° East 162 186 1,500 -780 Descending Los Angeles Center
09:58PM 34.1989 -118.3644 90° East 149 171 900 -600 Descending Los Angeles Center
10:00PM 34.2000 -118.3500 90° East  Level FlightAware Approximate